createdAt,value
2023-02-27T00:00:52.441Z,7.50
2023-02-27T00:03:18.908Z,6.47
2023-02-27T00:05:45.091Z,4.60
2023-02-27T00:08:11.305Z,4.78
2023-02-27T00:10:37.500Z,5.20
2023-02-27T00:13:04.062Z,4.75
2023-02-27T00:15:32.048Z,3.97
2023-02-27T00:17:59.230Z,7.88
2023-02-27T00:20:26.078Z,5.03
2023-02-27T00:22:52.408Z,4.72
2023-02-27T00:25:18.645Z,5.35
2023-02-27T00:27:44.904Z,5.55
2023-02-27T00:30:13.343Z,5.18
2023-02-27T00:32:39.763Z,6.47
2023-02-27T00:35:07.042Z,4.65
2023-02-27T00:37:34.342Z,7.18
2023-02-27T00:40:01.145Z,6.30
2023-02-27T00:42:28.294Z,6.35
2023-02-27T00:44:54.618Z,5.40
2023-02-27T00:47:20.809Z,5.57
2023-02-27T00:49:47.034Z,5.97
2023-02-27T00:52:13.225Z,6.43
2023-02-27T00:54:39.579Z,5.03
2023-02-27T00:57:05.851Z,5.07
2023-02-27T00:59:32.072Z,5.38
2023-02-27T01:01:58.381Z,6.55
2023-02-27T01:04:24.664Z,4.85
2023-02-27T01:06:50.890Z,6.88
2023-02-27T01:09:17.142Z,6.80
2023-02-27T01:11:43.331Z,6.10
2023-02-27T01:14:09.652Z,6.97
2023-02-27T01:16:35.906Z,7.97
2023-02-27T01:19:02.383Z,5.60
2023-02-27T01:21:28.960Z,4.65
2023-02-27T01:23:55.326Z,5.10
2023-02-27T01:26:21.590Z,7.00
2023-02-27T01:28:47.809Z,6.95
2023-02-27T01:31:14.199Z,4.40
2023-02-27T01:33:40.445Z,5.15
2023-02-27T01:36:06.855Z,5.72
2023-02-27T01:38:33.062Z,5.15
2023-02-27T01:41:00.574Z,7.10
2023-02-27T01:43:26.836Z,4.97
2023-02-27T01:45:53.184Z,6.57
2023-02-27T01:48:22.203Z,7.13
2023-02-27T01:51:07.176Z,5.93
2023-02-27T01:53:34.690Z,6.95
2023-02-27T01:56:04.159Z,4.00
2023-02-27T01:58:30.697Z,5.28
2023-02-27T02:00:57.042Z,5.78
2023-02-27T02:03:43.676Z,5.35
2023-02-27T02:06:11.068Z,4.63
2023-02-27T02:08:39.576Z,5.28
2023-02-27T02:11:06.207Z,3.40
2023-02-27T02:13:32.830Z,5.88
2023-02-27T02:16:17.956Z,4.95
2023-02-27T02:19:02.224Z,7.97
2023-02-27T02:21:31.490Z,5.95
2023-02-27T02:24:03.582Z,5.80
2023-02-27T02:26:37.772Z,5.22
2023-02-27T02:29:19.348Z,6.15
2023-02-27T02:32:04.444Z,5.68
2023-02-27T02:34:30.735Z,6.22
2023-02-27T02:37:17.167Z,6.05
2023-02-27T02:39:49.120Z,6.35
2023-02-27T02:42:22.098Z,6.25
2023-02-27T02:44:54.236Z,5.85
2023-02-27T02:47:40.693Z,5.60
2023-02-27T02:50:09.739Z,5.55
2023-02-27T02:53:01.308Z,5.40
2023-02-27T02:57:53.696Z,5.57
2023-02-27T03:00:25.705Z,5.05
2023-02-27T03:02:54.799Z,6.25
2023-02-27T03:05:37.061Z,6.18
2023-02-27T03:08:06.189Z,7.20
2023-02-27T03:10:51.094Z,5.20
2023-02-27T03:13:20.985Z,6.75
2023-02-27T03:15:50.233Z,7.53
2023-02-27T03:18:20.653Z,6.22
2023-02-27T03:20:49.391Z,7.60
2023-02-27T03:23:22.906Z,5.43
2023-02-27T03:25:50.780Z,9.68
2023-02-27T03:28:19.793Z,5.80
2023-02-27T03:30:55.979Z,4.93
2023-02-27T03:33:27.639Z,7.55
2023-02-27T03:35:59.238Z,8.38
2023-02-27T03:38:38.516Z,5.13
2023-02-27T03:41:13.180Z,7.47
2023-02-27T03:43:44.692Z,6.40
2023-02-27T03:46:24.632Z,4.85
2023-02-27T03:48:50.966Z,6.00
2023-02-27T03:51:28.485Z,5.50
2023-02-27T03:53:58.321Z,5.55
2023-02-27T03:56:27.038Z,6.28
2023-02-27T03:58:53.606Z,5.65
2023-02-27T04:01:19.946Z,4.88
2023-02-27T04:03:55.468Z,5.53
2023-02-27T04:06:40.525Z,7.47
2023-02-27T04:09:25.204Z,8.38
2023-02-27T04:11:51.508Z,8.93
2023-02-27T04:14:38.902Z,7.13
2023-02-27T04:17:05.058Z,7.97
2023-02-27T04:19:49.100Z,6.95
2023-02-27T04:22:34.206Z,8.88
2023-02-27T04:25:06.612Z,7.03
2023-02-27T04:27:40.676Z,9.13
2023-02-27T04:30:12.734Z,6.13
2023-02-27T04:32:41.183Z,8.30
2023-02-27T04:35:13.167Z,7.72
2023-02-27T04:37:58.260Z,6.10
2023-02-27T04:40:28.125Z,5.82
2023-02-27T04:42:55.583Z,5.85
2023-02-27T04:45:23.530Z,6.15
2023-02-27T04:47:53.351Z,6.95
2023-02-27T04:50:24.430Z,6.07
2023-02-27T04:53:13.894Z,7.38
2023-02-27T04:55:43.378Z,7.00
2023-02-27T04:58:15.110Z,7.07
2023-02-27T05:00:42.935Z,8.45
2023-02-27T05:03:11.909Z,9.95
2023-02-27T05:05:39.680Z,16.17
2023-02-27T05:08:09.962Z,9.45
2023-02-27T05:10:39.116Z,9.73
2023-02-27T05:13:14.962Z,9.65
2023-02-27T05:15:46.830Z,7.28
2023-02-27T05:18:15.615Z,6.90
2023-02-27T05:20:41.849Z,12.27
2023-02-27T05:23:27.055Z,12.57
2023-02-27T05:26:00.704Z,17.10
2023-02-27T05:28:38.285Z,10.40
2023-02-27T05:31:07.346Z,11.68
2023-02-27T05:33:41.096Z,12.18
2023-02-27T05:36:11.102Z,9.80
2023-02-27T05:38:43.477Z,13.82
2023-02-27T05:41:11.586Z,11.20
2023-02-27T05:43:41.111Z,10.73
2023-02-27T05:46:13.302Z,6.93
2023-02-27T05:48:42.245Z,10.05
2023-02-27T05:51:09.124Z,8.57
2023-02-27T05:53:38.145Z,9.23
2023-02-27T05:56:06.301Z,9.43
2023-02-27T05:58:35.153Z,9.15
2023-02-27T06:01:02.681Z,11.23
2023-02-27T06:03:31.397Z,9.43
2023-02-27T06:05:58.884Z,12.02
2023-02-27T06:08:25.333Z,9.43
2023-02-27T06:10:51.770Z,7.85
2023-02-27T06:13:18.255Z,14.45
2023-02-27T06:15:44.794Z,8.35
2023-02-27T06:18:11.525Z,9.35
2023-02-27T06:20:37.821Z,8.93
2023-02-27T06:23:04.091Z,10.80
2023-02-27T06:25:30.689Z,10.55
2023-02-27T06:27:56.873Z,8.82
2023-02-27T06:30:23.133Z,10.25
2023-02-27T06:32:49.326Z,9.48
2023-02-27T06:35:15.799Z,7.35
2023-02-27T06:37:42.020Z,9.35
2023-02-27T06:40:14.377Z,9.32
2023-02-27T06:42:41.549Z,10.35
2023-02-27T06:45:08.126Z,9.13
2023-02-27T06:47:34.390Z,10.98
2023-02-27T06:50:00.906Z,7.53
2023-02-27T06:52:27.357Z,13.23
2023-02-27T06:54:53.557Z,13.60
2023-02-27T06:57:19.781Z,14.10
2023-02-27T06:59:46.043Z,8.52
2023-02-27T07:02:12.987Z,9.07
2023-02-27T07:04:39.270Z,13.95
2023-02-27T07:07:32.666Z,9.40
2023-02-27T07:09:51.771Z,10.45
2023-02-27T07:12:17.993Z,12.02
2023-02-27T07:14:44.182Z,9.38
2023-02-27T07:17:10.910Z,11.18
2023-02-27T07:19:37.441Z,10.55
2023-02-27T07:22:03.804Z,9.73
2023-02-27T07:24:30.038Z,12.38
2023-02-27T07:26:56.396Z,8.50
2023-02-27T07:29:22.614Z,9.68
2023-02-27T07:31:48.875Z,11.73
2023-02-27T07:34:15.577Z,12.07
2023-02-27T07:36:41.820Z,11.50
2023-02-27T07:39:10.439Z,9.60
2023-02-27T07:41:36.660Z,8.55
2023-02-27T07:44:02.871Z,9.02
2023-02-27T07:46:29.518Z,7.13
2023-02-27T07:48:55.972Z,8.65
2023-02-27T07:51:22.316Z,8.93
2023-02-27T07:53:48.561Z,10.20
2023-02-27T07:56:14.813Z,10.52
2023-02-27T07:58:41.103Z,9.63
2023-02-27T08:01:07.363Z,7.53
2023-02-27T08:03:33.593Z,7.75
2023-02-27T08:06:02.145Z,5.00
2023-02-27T08:08:29.485Z,6.78
2023-02-27T08:10:55.820Z,6.70
2023-02-27T08:13:42.181Z,7.72
2023-02-27T08:16:08.753Z,4.82
2023-02-27T08:18:35.132Z,3.72
2023-02-27T08:21:01.436Z,4.25
2023-02-27T08:23:27.639Z,4.53
2023-02-27T08:25:53.889Z,4.72
2023-02-27T08:28:20.122Z,5.55
2023-02-27T08:30:46.341Z,3.67
2023-02-27T08:33:12.548Z,4.05
2023-02-27T08:35:38.773Z,4.88
2023-02-27T08:38:05.496Z,2.75
2023-02-27T08:40:31.826Z,4.03
2023-02-27T08:42:58.096Z,4.03
2023-02-27T08:45:24.501Z,3.03
2023-02-27T08:47:50.785Z,4.22
2023-02-27T08:50:17.122Z,2.97
2023-02-27T08:52:43.317Z,5.07
2023-02-27T08:55:09.792Z,3.97
2023-02-27T08:57:35.970Z,3.83
2023-02-27T09:00:02.517Z,3.38
2023-02-27T09:02:28.867Z,5.13
2023-02-27T09:04:55.133Z,4.95
2023-02-27T09:07:21.412Z,3.65
2023-02-27T09:09:49.950Z,3.85
2023-02-27T09:12:16.534Z,3.85
2023-02-27T09:14:42.760Z,3.25
2023-02-27T09:17:08.980Z,2.83
2023-02-27T09:19:36.054Z,2.53
2023-02-27T09:22:02.239Z,4.03
2023-02-27T09:24:28.473Z,5.13
2023-02-27T09:26:54.656Z,5.45
2023-02-27T09:29:21.352Z,3.03
2023-02-27T09:31:47.676Z,6.05
2023-02-27T09:34:14.027Z,2.30
2023-02-27T09:36:40.289Z,4.75
2023-02-27T09:39:06.506Z,4.32
2023-02-27T09:41:52.314Z,5.00
2023-02-27T09:44:44.865Z,3.00
2023-02-27T09:47:30.353Z,3.72
2023-02-27T09:50:07.458Z,4.57
2023-02-27T09:52:35.183Z,2.30
2023-02-27T09:55:01.509Z,3.75
2023-02-27T09:57:32.200Z,3.05
2023-02-27T10:00:01.489Z,4.57
2023-02-27T10:02:30.689Z,2.58
2023-02-27T10:05:15.898Z,4.38
2023-02-27T10:08:08.670Z,4.80
2023-02-27T10:10:47.910Z,2.60
2023-02-27T10:13:33.012Z,2.00
2023-02-27T10:15:59.835Z,1.80
2023-02-27T10:18:44.987Z,2.15
2023-02-27T10:21:13.710Z,4.28
2023-02-27T10:23:46.187Z,2.05
2023-02-27T10:26:17.904Z,2.28
2023-02-27T10:28:44.158Z,2.15
2023-02-27T10:31:25.457Z,2.90
2023-02-27T10:33:52.105Z,2.30
2023-02-27T10:36:32.532Z,2.00
2023-02-27T10:39:03.502Z,3.15
2023-02-27T10:41:30.278Z,2.53
2023-02-27T10:43:58.242Z,2.00
2023-02-27T10:46:29.614Z,1.38
2023-02-27T10:48:58.038Z,3.42
2023-02-27T10:51:31.739Z,1.58
2023-02-27T10:54:14.371Z,2.53
2023-02-27T10:56:41.012Z,2.00
2023-02-27T10:59:17.183Z,1.05
2023-02-27T11:01:45.065Z,2.50
2023-02-27T11:04:12.418Z,1.83
2023-02-27T11:06:38.694Z,0.98
2023-02-27T11:09:32.894Z,1.17
2023-02-27T11:12:17.907Z,1.15
2023-02-27T11:14:48.682Z,1.00
2023-02-27T11:17:26.076Z,1.77
2023-02-27T11:19:52.411Z,0.95
2023-02-27T11:22:20.817Z,0.85
2023-02-27T11:24:47.794Z,0.90
2023-02-27T11:27:22.004Z,1.45
2023-02-27T11:30:02.292Z,1.50
2023-02-27T11:32:36.138Z,1.25
2023-02-27T11:35:04.251Z,1.17
2023-02-27T11:37:32.725Z,2.70
2023-02-27T11:40:05.310Z,1.80
2023-02-27T11:42:32.981Z,1.08
2023-02-27T11:45:02.074Z,1.33
2023-02-27T11:47:33.241Z,1.98
2023-02-27T11:52:50.581Z,2.47
2023-02-27T11:55:19.461Z,2.50
2023-02-27T11:57:46.745Z,2.88
2023-02-27T12:00:16.325Z,2.08
2023-02-27T12:02:50.523Z,2.17
2023-02-27T12:05:27.941Z,2.60
2023-02-27T12:07:57.173Z,3.08
2023-02-27T12:10:27.961Z,2.95
2023-02-27T12:12:54.132Z,1.17
2023-02-27T12:15:32.368Z,2.35
2023-02-27T12:18:10.844Z,1.42
2023-02-27T12:20:55.206Z,2.10
2023-02-27T12:23:33.642Z,2.00
2023-02-27T12:26:03.721Z,3.25
2023-02-27T12:28:33.092Z,2.08
2023-02-27T12:31:17.083Z,2.78
2023-02-27T12:33:46.070Z,3.03
2023-02-27T12:36:13.809Z,4.45
2023-02-27T12:38:40.053Z,2.70
2023-02-27T12:41:06.253Z,2.78
2023-02-27T12:43:44.809Z,2.25
2023-02-27T12:46:17.071Z,3.47
2023-02-27T12:48:49.456Z,2.20
2023-02-27T12:51:18.421Z,1.50
2023-02-27T12:53:57.225Z,2.03
2023-02-27T12:56:24.840Z,2.35
2023-02-27T12:58:53.854Z,3.03
2023-02-27T13:01:23.170Z,2.95
2023-02-27T13:04:08.409Z,3.10
2023-02-27T13:06:47.818Z,3.17
2023-02-27T13:09:25.638Z,6.70
2023-02-27T13:11:52.114Z,2.97
2023-02-27T13:14:30.547Z,2.90
2023-02-27T13:16:59.715Z,2.22
2023-02-27T13:19:44.401Z,2.55
2023-02-27T13:22:10.591Z,1.98
2023-02-27T13:24:44.527Z,2.42
2023-02-27T13:27:20.729Z,1.67
2023-02-27T13:30:11.162Z,2.05
2023-02-27T13:32:44.038Z,2.15
2023-02-27T13:35:27.871Z,1.73
2023-02-27T13:38:02.247Z,1.40
2023-02-27T13:40:30.418Z,2.95
2023-02-27T13:42:58.186Z,2.15
2023-02-27T13:45:59.840Z,1.55
2023-02-27T13:48:46.080Z,3.22
2023-02-27T13:51:32.463Z,2.65
2023-02-27T13:54:07.591Z,1.42
2023-02-27T13:56:33.847Z,3.35
2023-02-27T13:59:13.461Z,1.88
2023-02-27T14:01:39.919Z,1.75
2023-02-27T14:04:07.418Z,2.00
2023-02-27T14:06:42.510Z,1.48
2023-02-27T14:09:15.061Z,2.40
2023-02-27T14:11:51.162Z,1.67
2023-02-27T14:14:36.039Z,3.45
2023-02-27T14:17:03.553Z,3.17
2023-02-27T14:19:32.793Z,4.28
2023-02-27T14:22:03.273Z,2.40
2023-02-27T14:24:33.557Z,1.58
2023-02-27T14:27:00.456Z,2.47
2023-02-27T14:29:31.040Z,1.58
2023-02-27T14:31:59.782Z,1.60
2023-02-27T14:34:26.430Z,1.75
2023-02-27T14:36:54.177Z,2.45
2023-02-27T14:39:28.512Z,2.80
2023-02-27T14:42:13.041Z,3.05
2023-02-27T14:44:42.872Z,1.95
2023-02-27T14:47:27.898Z,3.47
2023-02-27T14:49:55.996Z,1.90
2023-02-27T14:52:23.660Z,2.92
2023-02-27T14:54:50.716Z,3.78
2023-02-27T14:57:25.184Z,3.05
2023-02-27T14:59:53.466Z,2.45
2023-02-27T15:02:34.044Z,3.67
2023-02-27T15:05:03.323Z,4.22
2023-02-27T15:07:30.753Z,2.20
2023-02-27T15:09:58.722Z,3.30
2023-02-27T15:12:25.887Z,1.92
2023-02-27T15:14:57.438Z,6.10
2023-02-27T15:19:51.960Z,3.67
2023-02-27T15:22:38.452Z,2.97
2023-02-27T15:25:25.492Z,3.38
2023-02-27T15:27:51.787Z,3.58
2023-02-27T15:30:20.597Z,2.53
2023-02-27T15:32:46.914Z,3.60
2023-02-27T15:35:18.748Z,4.35
2023-02-27T15:37:52.711Z,4.93
2023-02-27T15:40:21.109Z,5.28
2023-02-27T15:42:47.659Z,3.10
2023-02-27T15:45:17.283Z,5.10
2023-02-27T15:47:44.053Z,4.97
2023-02-27T15:50:30.618Z,5.53
2023-02-27T15:53:04.452Z,3.63
2023-02-27T15:55:32.056Z,6.45
2023-02-27T15:58:03.112Z,2.70
2023-02-27T16:02:57.032Z,3.67
2023-02-27T16:05:26.455Z,3.00
2023-02-27T16:07:53.325Z,3.03
2023-02-27T16:10:30.206Z,3.33
2023-02-27T16:12:56.482Z,3.00
2023-02-27T16:15:24.987Z,3.58
2023-02-27T16:17:57.473Z,4.22
2023-02-27T16:20:42.511Z,3.17
2023-02-27T16:23:25.243Z,5.47
2023-02-27T16:26:00.562Z,3.88
2023-02-27T16:28:41.370Z,2.33
2023-02-27T16:31:16.697Z,3.97
2023-02-27T16:33:42.979Z,5.45
2023-02-27T16:36:17.661Z,3.95
2023-02-27T16:38:44.102Z,6.07
2023-02-27T16:41:11.444Z,5.63
2023-02-27T16:43:37.798Z,5.18
2023-02-27T16:46:04.146Z,4.45
2023-02-27T16:48:30.344Z,4.38
2023-02-27T16:50:56.561Z,4.10
2023-02-27T16:53:22.762Z,3.30
2023-02-27T16:55:49.537Z,2.47
2023-02-27T16:58:16.589Z,4.55
2023-02-27T17:00:43.433Z,5.47
2023-02-27T17:03:09.775Z,6.43
2023-02-27T17:05:36.082Z,5.38
2023-02-27T17:08:02.321Z,4.35
2023-02-27T17:10:28.634Z,4.25
2023-02-27T17:12:54.841Z,4.57
2023-02-27T17:15:21.159Z,3.22
2023-02-27T17:17:47.395Z,4.18
2023-02-27T17:20:14.281Z,3.83
2023-02-27T17:22:42.144Z,4.28
2023-02-27T17:25:09.217Z,3.95
2023-02-27T17:27:35.409Z,3.83
2023-02-27T17:30:01.867Z,5.88
2023-02-27T17:32:28.148Z,4.00
2023-02-27T17:34:55.176Z,5.03
2023-02-27T17:37:21.767Z,5.22
2023-02-27T17:39:48.116Z,5.45
2023-02-27T17:42:18.200Z,9.07
2023-02-27T17:44:45.308Z,6.10
2023-02-27T17:47:11.643Z,8.45
2023-02-27T17:49:37.892Z,5.15
2023-02-27T17:52:04.251Z,9.77
2023-02-27T17:54:30.487Z,9.80
2023-02-27T17:56:56.761Z,6.95
2023-02-27T17:59:22.968Z,7.95
2023-02-27T18:01:49.214Z,7.05
2023-02-27T18:04:17.242Z,5.45
2023-02-27T18:06:44.124Z,6.75
2023-02-27T18:09:10.704Z,7.03
2023-02-27T18:11:40.261Z,6.30
2023-02-27T18:14:06.499Z,7.13
2023-02-27T18:16:32.902Z,6.63
2023-02-27T18:19:01.881Z,5.88
2023-02-27T18:21:28.116Z,6.63
2023-02-27T18:23:54.521Z,8.00
2023-02-27T18:26:29.397Z,7.68
2023-02-27T18:28:59.911Z,6.85
2023-02-27T18:31:27.926Z,8.50
2023-02-27T18:33:54.212Z,8.13
2023-02-27T18:36:20.737Z,9.18
2023-02-27T18:38:47.201Z,6.43
2023-02-27T18:41:13.649Z,6.93
2023-02-27T18:43:40.745Z,6.43
2023-02-27T18:46:07.586Z,7.50
2023-02-27T18:48:33.994Z,6.32
2023-02-27T18:51:01.397Z,6.32
2023-02-27T18:53:27.707Z,5.55
2023-02-27T18:55:59.153Z,9.13
2023-02-27T19:00:51.614Z,6.38
2023-02-27T19:03:18.275Z,8.13
2023-02-27T19:05:44.714Z,6.38
2023-02-27T19:08:10.924Z,5.78
2023-02-27T19:10:40.591Z,6.85
2023-02-27T19:13:07.069Z,10.15
2023-02-27T19:15:33.552Z,6.80
2023-02-27T19:17:59.793Z,4.93
2023-02-27T19:20:26.011Z,5.53
2023-02-27T19:22:53.344Z,6.30
2023-02-27T19:25:20.016Z,6.22
2023-02-27T19:27:46.763Z,6.38
2023-02-27T19:30:13.628Z,6.50
2023-02-27T19:32:40.020Z,6.85
2023-02-27T19:35:06.677Z,7.35
2023-02-27T19:37:33.016Z,7.97
2023-02-27T19:39:59.364Z,7.13
2023-02-27T19:42:25.849Z,8.55
2023-02-27T19:44:52.264Z,6.20
2023-02-27T19:47:18.923Z,5.60
2023-02-27T19:49:45.102Z,7.05
2023-02-27T19:52:13.140Z,6.25
2023-02-27T19:54:39.405Z,7.10
2023-02-27T19:57:05.604Z,8.27
2023-02-27T19:59:31.854Z,9.20
2023-02-27T20:01:59.201Z,11.50
2023-02-27T20:04:25.548Z,8.45
2023-02-27T20:06:53.590Z,9.82
2023-02-27T20:09:20.380Z,7.60
2023-02-27T20:11:47.963Z,9.25
2023-02-27T20:14:15.034Z,7.47
2023-02-27T20:16:42.051Z,6.32
2023-02-27T20:19:10.375Z,9.43
2023-02-27T20:21:36.645Z,8.20
2023-02-27T20:24:02.892Z,6.47
2023-02-27T20:26:31.171Z,6.47
2023-02-27T20:29:01.961Z,8.13
2023-02-27T20:31:29.138Z,8.48
2023-02-27T20:33:56.976Z,11.60
2023-02-27T20:36:23.291Z,8.23
2023-02-27T20:38:49.525Z,11.98
2023-02-27T20:41:17.256Z,11.73
2023-02-27T20:43:43.910Z,9.38
2023-02-27T20:46:11.751Z,10.25
2023-02-27T20:48:38.544Z,12.20
2023-02-27T20:51:05.724Z,9.85
2023-02-27T20:53:33.280Z,12.25
2023-02-27T20:55:59.518Z,10.70
2023-02-27T20:58:25.733Z,11.68
2023-02-27T21:00:52.142Z,8.57
2023-02-27T21:03:18.453Z,9.40
2023-02-27T21:05:47.989Z,9.02
2023-02-27T21:08:14.182Z,8.32
2023-02-27T21:10:40.443Z,8.38
2023-02-27T21:13:06.773Z,7.78
2023-02-27T21:15:36.471Z,8.15
2023-02-27T21:18:02.729Z,9.15
2023-02-27T21:20:29.023Z,9.30
2023-02-27T21:22:55.783Z,7.10
2023-02-27T21:25:22.888Z,7.30
2023-02-27T21:27:49.321Z,6.68
2023-02-27T21:30:16.439Z,7.90
2023-02-27T21:32:42.640Z,7.50
2023-02-27T21:35:09.069Z,8.18
2023-02-27T21:37:35.302Z,6.45
2023-02-27T21:40:04.056Z,7.43
2023-02-27T21:42:30.860Z,7.03
2023-02-27T21:44:57.209Z,6.95
2023-02-27T21:47:23.486Z,8.88
2023-02-27T21:49:49.805Z,5.78
2023-02-27T21:52:16.094Z,7.32
2023-02-27T21:54:42.356Z,8.55
2023-02-27T21:57:09.883Z,6.95
2023-02-27T21:59:36.206Z,6.32
2023-02-27T22:02:02.528Z,8.25
2023-02-27T22:04:28.780Z,8.05
2023-02-27T22:06:55.005Z,6.47
2023-02-27T22:09:21.337Z,6.72
2023-02-27T22:11:48.095Z,6.28
2023-02-27T22:14:14.385Z,6.60
2023-02-27T22:16:40.938Z,5.93
2023-02-27T22:19:11.480Z,6.15
2023-02-27T22:21:38.045Z,6.00
2023-02-27T22:24:05.071Z,5.32
2023-02-27T22:26:32.014Z,6.72
2023-02-27T22:28:58.922Z,6.07
2023-02-27T22:31:30.644Z,5.72
2023-02-27T22:33:59.442Z,7.38
2023-02-27T22:36:27.310Z,6.90
2023-02-27T22:38:53.566Z,6.78
2023-02-27T22:41:21.054Z,5.28
2023-02-27T22:43:47.456Z,8.52
2023-02-27T22:46:16.352Z,5.93
2023-02-27T22:48:42.780Z,9.77
2023-02-27T22:51:12.613Z,5.75
2023-02-27T22:53:39.788Z,20.90
2023-02-27T22:56:07.280Z,18.40
2023-02-27T22:58:39.688Z,7.25
2023-02-27T23:01:19.502Z,7.95
2023-02-27T23:03:46.672Z,7.07
2023-02-27T23:06:15.291Z,7.07
2023-02-27T23:08:42.380Z,7.57
2023-02-27T23:11:09.261Z,10.93
2023-02-27T23:13:35.541Z,7.65
2023-02-27T23:16:02.432Z,5.65
2023-02-27T23:18:28.688Z,6.03
2023-02-27T23:20:54.936Z,6.45
2023-02-27T23:23:21.184Z,8.18
2023-02-27T23:25:47.446Z,7.57
2023-02-27T23:28:13.671Z,7.07
2023-02-27T23:30:39.955Z,5.30
2023-02-27T23:33:06.218Z,6.05
2023-02-27T23:35:32.439Z,4.95
2023-02-27T23:37:59.069Z,5.38
2023-02-27T23:40:26.757Z,5.72
2023-02-27T23:42:53.631Z,4.95
2023-02-27T23:45:25.603Z,6.38
2023-02-27T23:47:56.022Z,6.80
2023-02-27T23:50:24.100Z,6.90
2023-02-27T23:52:50.885Z,5.00
2023-02-27T23:55:18.247Z,7.38
2023-02-27T23:57:44.534Z,5.00
